Time;durP1;ratioP1;P1;durP2;ratioP2;P2;SDS_P1;SDS_P2;PMS_P1;PMS_P2;Temp;Humidity;BMP_temperature;BMP_pressure;BME280_temperature;BME280_humidity;BME280_pressure;Samples;Min_cycle;Max_cycle;Signal;HPM_P1;HPM_P2
2022/03/09 00:01:36;;;;;;;15.03;8.20;;;;;;;;;;5053797;28;20419;-64
2022/03/09 00:04:03;;;;;;;14.63;7.70;;;;;;;;;;5053390;28;20460;-67
2022/03/09 00:06:29;;;;;;;13.60;8.67;;;;;;;;;;5053384;28;20492;-67
2022/03/09 00:08:55;;;;;;;12.03;6.90;;;;;;;;;;5053552;28;20811;-65
2022/03/09 00:11:24;;;;;;;12.57;8.40;;;;;;;;;;5053311;28;20463;-74
2022/03/09 00:13:50;;;;;;;12.23;7.60;;;;;;;;;;5053471;28;20410;-64
2022/03/09 00:16:16;;;;;;;18.70;9.30;;;;;;;;;;5053303;28;20419;-68
2022/03/09 00:18:42;;;;;;;13.53;8.97;;;;;;;;;;5053256;28;20421;-71
2022/03/09 00:21:09;;;;;;;12.37;7.73;;;;;;;;;;5053453;28;20506;-72
2022/03/09 00:23:35;;;;;;;14.13;9.33;;;;;;;;;;5052062;28;20411;-74
2022/03/09 00:26:01;;;;;;;12.20;8.00;;;;;;;;;;5052047;28;20525;-69
2022/03/09 00:28:27;;;;;;;11.30;7.50;;;;;;;;;;5053166;28;20407;-62
2022/03/09 00:30:52;;;;;;;14.47;7.83;;;;;;;;;;5053281;28;20766;-63
2022/03/09 00:33:18;;;;;;;13.70;8.50;;;;;;;;;;5053102;28;20422;-61
2022/03/09 00:35:44;;;;;;;15.97;8.77;;;;;;;;;;5053085;28;20419;-64
2022/03/09 00:38:11;;;;;;;15.10;8.07;;;;;;;;;;5053021;28;20467;-72
2022/03/09 00:40:37;;;;;;;13.67;8.53;;;;;;;;;;5053047;28;20406;-72
2022/03/09 00:43:03;;;;;;;15.43;8.87;;;;;;;;;;5053066;28;20415;-70
2022/03/09 00:45:29;;;;;;;14.93;8.93;;;;;;;;;;5052974;28;20589;-69
2022/03/09 00:47:55;;;;;;;16.90;8.80;;;;;;;;;;5052903;28;20843;-72
2022/03/09 00:50:21;;;;;;;14.13;8.70;;;;;;;;;;5053104;28;20440;-72
2022/03/09 00:52:47;;;;;;;13.37;7.70;;;;;;;;;;5052920;28;20588;-72
2022/03/09 00:55:14;;;;;;;16.17;8.73;;;;;;;;;;5052946;28;20984;-72
2022/03/09 00:57:40;;;;;;;12.53;8.00;;;;;;;;;;5052787;28;20419;-63
2022/03/09 01:00:06;;;;;;;16.97;7.60;;;;;;;;;;5052900;28;20399;-62
2022/03/09 01:02:32;;;;;;;17.93;8.17;;;;;;;;;;5051557;28;20422;-63
2022/03/09 01:04:58;;;;;;;15.07;7.67;;;;;;;;;;5052680;28;20817;-61
2022/03/09 01:07:24;;;;;;;12.70;8.20;;;;;;;;;;5051478;28;20482;-67
2022/03/09 01:09:50;;;;;;;17.07;8.97;;;;;;;;;;5052830;28;20423;-61
2022/03/09 01:12:16;;;;;;;11.50;7.63;;;;;;;;;;5052796;28;20513;-62
2022/03/09 01:14:42;;;;;;;13.17;7.67;;;;;;;;;;5052724;28;20419;-67
2022/03/09 01:17:08;;;;;;;14.30;8.73;;;;;;;;;;5052461;28;20430;-62
2022/03/09 01:19:34;;;;;;;9.53;7.13;;;;;;;;;;5052703;28;20405;-62
2022/03/09 01:22:00;;;;;;;10.00;8.00;;;;;;;;;;5053115;28;20435;-62
2022/03/09 01:24:26;;;;;;;14.23;8.20;;;;;;;;;;5056591;28;20905;-61
2022/03/09 01:26:52;;;;;;;13.30;7.97;;;;;;;;;;5056423;28;20536;-61
2022/03/09 01:29:18;;;;;;;12.00;7.57;;;;;;;;;;5056428;28;20424;-62
2022/03/09 01:31:44;;;;;;;14.60;7.13;;;;;;;;;;5055047;28;20430;-61
2022/03/09 01:34:10;;;;;;;11.57;7.50;;;;;;;;;;5055195;28;20488;-61
2022/03/09 01:36:37;;;;;;;12.30;7.50;;;;;;;;;;5056264;28;20906;-61
2022/03/09 01:39:03;;;;;;;12.50;7.87;;;;;;;;;;5056400;28;20417;-61
2022/03/09 01:41:29;;;;;;;16.03;9.10;;;;;;;;;;5056297;28;20411;-71
2022/03/09 01:44:05;;;;;;;13.10;8.43;;;;;;;;;;5056336;28;20812;-67
2022/03/09 01:46:31;;;;;;;14.47;8.60;;;;;;;;;;5056103;28;20903;-67
2022/03/09 01:48:57;;;;;;;11.97;7.77;;;;;;;;;;5056191;28;20734;-69
2022/03/09 01:51:23;;;;;;;15.80;7.70;;;;;;;;;;5056093;28;20419;-71
2022/03/09 01:53:50;;;;;;;13.47;7.90;;;;;;;;;;5055969;28;20407;-71
2022/03/09 01:56:16;;;;;;;13.30;7.50;;;;;;;;;;5055961;28;20797;-72
2022/03/09 01:58:42;;;;;;;13.30;8.70;;;;;;;;;;5054701;28;20410;-71
2022/03/09 02:01:08;;;;;;;16.70;8.73;;;;;;;;;;5055995;28;20508;-69
2022/03/09 02:03:35;;;;;;;13.63;8.00;;;;;;;;;;5055690;28;20458;-70
2022/03/09 02:06:01;;;;;;;14.80;7.83;;;;;;;;;;5055723;28;20949;-70
2022/03/09 02:11:12;;;;;;;13.23;8.90;;;;;;;;;;5056004;28;20453;-71
2022/03/09 02:13:39;;;;;;;14.90;8.73;;;;;;;;;;5055761;28;20411;-63
2022/03/09 02:16:06;;;;;;;13.97;7.80;;;;;;;;;;5055687;28;20866;-61
2022/03/09 02:18:32;;;;;;;12.60;7.40;;;;;;;;;;5055483;28;20406;-68
2022/03/09 02:21:01;;;;;;;12.27;7.97;;;;;;;;;;5055675;28;20808;-61
2022/03/09 02:23:27;;;;;;;13.97;7.70;;;;;;;;;;5055416;28;20412;-61
2022/03/09 02:25:53;;;;;;;18.90;8.80;;;;;;;;;;5055428;28;20958;-62
2022/03/09 02:28:19;;;;;;;13.37;7.30;;;;;;;;;;5055439;28;20494;-61
2022/03/09 02:30:45;;;;;;;12.57;8.07;;;;;;;;;;5055372;28;20405;-61
2022/03/09 02:33:11;;;;;;;11.73;7.50;;;;;;;;;;5055337;28;20514;-61
2022/03/09 02:35:37;;;;;;;13.93;8.37;;;;;;;;;;5055263;28;20832;-61
2022/03/09 02:38:03;;;;;;;16.33;8.27;;;;;;;;;;5053884;28;20766;-61
2022/03/09 02:40:29;;;;;;;13.77;8.37;;;;;;;;;;5055264;28;20413;-65
2022/03/09 02:42:55;;;;;;;8.73;6.50;;;;;;;;;;5055212;28;20418;-72
2022/03/09 02:45:21;;;;;;;11.53;7.40;;;;;;;;;;5055184;28;20413;-71
2022/03/09 02:47:47;;;;;;;10.90;7.03;;;;;;;;;;5054993;28;20431;-71
2022/03/09 02:50:14;;;;;;;11.50;7.20;;;;;;;;;;5055104;28;20755;-72
2022/03/09 02:52:40;;;;;;;14.23;7.57;;;;;;;;;;5054863;28;20471;-68
2022/03/09 02:55:07;;;;;;;13.70;7.33;;;;;;;;;;5054895;28;20413;-72
2022/03/09 02:57:33;;;;;;;11.57;7.47;;;;;;;;;;5054632;28;20431;-72
2022/03/09 02:59:59;;;;;;;13.43;7.67;;;;;;;;;;5054783;28;20419;-70
2022/03/09 03:02:25;;;;;;;13.97;7.67;;;;;;;;;;5054856;28;20421;-72
2022/03/09 03:04:51;;;;;;;11.27;6.83;;;;;;;;;;5054600;28;20489;-69
2022/03/09 03:07:17;;;;;;;11.60;6.77;;;;;;;;;;5054479;28;20477;-71
2022/03/09 03:09:43;;;;;;;10.50;7.20;;;;;;;;;;5054751;28;20399;-71
2022/03/09 03:12:10;;;;;;;12.23;7.23;;;;;;;;;;5054488;28;20407;-72
2022/03/09 03:14:36;;;;;;;12.80;7.40;;;;;;;;;;5054523;28;20424;-70
2022/03/09 03:17:02;;;;;;;14.00;7.20;;;;;;;;;;5054327;28;20765;-71
2022/03/09 03:19:28;;;;;;;12.37;8.13;;;;;;;;;;5054565;28;20422;-71
2022/03/09 03:21:54;;;;;;;12.13;6.80;;;;;;;;;;5054317;28;20985;-72
2022/03/09 03:24:20;;;;;;;13.47;7.40;;;;;;;;;;5054417;28;20403;-71
2022/03/09 03:26:46;;;;;;;12.83;7.70;;;;;;;;;;5054378;28;20554;-72
2022/03/09 03:29:12;;;;;;;12.50;7.27;;;;;;;;;;5054333;28;20412;-61
2022/03/09 03:31:38;;;;;;;15.00;6.83;;;;;;;;;;5054198;28;20407;-61
2022/03/09 03:34:04;;;;;;;9.53;6.70;;;;;;;;;;5054162;28;20889;-61
2022/03/09 03:36:30;;;;;;;10.37;6.60;;;;;;;;;;5054038;28;20446;-61
2022/03/09 03:38:56;;;;;;;9.40;6.77;;;;;;;;;;5054111;28;20417;-61
2022/03/09 03:41:22;;;;;;;11.33;6.30;;;;;;;;;;5054141;28;20409;-72
2022/03/09 03:43:48;;;;;;;12.10;7.20;;;;;;;;;;5054001;28;20770;-71
2022/03/09 03:46:14;;;;;;;9.57;6.53;;;;;;;;;;5053385;28;20496;-72
2022/03/09 03:48:40;;;;;;;13.17;7.40;;;;;;;;;;5053963;28;20410;-72
2022/03/09 03:51:06;;;;;;;10.23;6.80;;;;;;;;;;5053691;28;20864;-71
2022/03/09 03:53:32;;;;;;;10.67;7.00;;;;;;;;;;5053869;28;20449;-72
2022/03/09 03:55:58;;;;;;;12.60;7.27;;;;;;;;;;5052558;28;20450;-72
2022/03/09 03:58:24;;;;;;;14.50;8.17;;;;;;;;;;5052350;28;20451;-72
2022/03/09 04:00:50;;;;;;;14.23;7.53;;;;;;;;;;5053670;28;20411;-71
2022/03/09 04:03:16;;;;;;;11.90;6.83;;;;;;;;;;5053449;28;20456;-72
2022/03/09 04:05:42;;;;;;;14.33;7.53;;;;;;;;;;5053555;28;20463;-73
2022/03/09 04:08:08;;;;;;;12.77;7.10;;;;;;;;;;5052256;28;21017;-70
2022/03/09 04:10:34;;;;;;;12.10;7.20;;;;;;;;;;5053466;28;20475;-68
2022/03/09 04:13:03;;;;;;;12.13;7.60;;;;;;;;;;5053538;28;20628;-72
2022/03/09 04:15:29;;;;;;;11.90;6.83;;;;;;;;;;5053474;28;20762;-72
2022/03/09 04:17:55;;;;;;;12.53;6.90;;;;;;;;;;5053284;28;20412;-71
2022/03/09 04:20:21;;;;;;;10.03;7.23;;;;;;;;;;5053402;28;20396;-72
2022/03/09 04:22:47;;;;;;;9.70;6.53;;;;;;;;;;5052143;28;20759;-70
2022/03/09 04:25:13;;;;;;;11.83;7.40;;;;;;;;;;5053283;28;20509;-73
2022/03/09 04:27:39;;;;;;;12.53;8.00;;;;;;;;;;5053116;28;20470;-71
2022/03/09 04:30:06;;;;;;;12.13;6.60;;;;;;;;;;5053239;28;20414;-66
2022/03/09 04:32:34;;;;;;;9.43;6.40;;;;;;;;;;5052004;28;20423;-62
2022/03/09 04:35:00;;;;;;;9.03;6.50;;;;;;;;;;5052051;28;20417;-62
2022/03/09 04:37:30;;;;;;;12.33;7.20;;;;;;;;;;5053072;28;20480;-71
2022/03/09 04:39:56;;;;;;;12.50;6.60;;;;;;;;;;5053192;28;20902;-72
2022/03/09 04:42:22;;;;;;;11.10;6.50;;;;;;;;;;5053155;28;20411;-73
2022/03/09 04:44:48;;;;;;;9.70;6.33;;;;;;;;;;5053050;28;20958;-72
2022/03/09 04:47:14;;;;;;;10.33;7.20;;;;;;;;;;5052930;28;20549;-73
2022/03/09 04:49:40;;;;;;;10.70;6.10;;;;;;;;;;5053087;28;20506;-72
2022/03/09 04:52:06;;;;;;;10.10;6.33;;;;;;;;;;5052821;28;20534;-67
2022/03/09 04:54:32;;;;;;;9.43;6.63;;;;;;;;;;5053195;28;20863;-74
2022/03/09 04:56:59;;;;;;;10.90;7.80;;;;;;;;;;5053192;28;20411;-70
2022/03/09 04:59:25;;;;;;;17.13;7.67;;;;;;;;;;5057135;28;20935;-65
2022/03/09 05:01:51;;;;;;;9.50;6.20;;;;;;;;;;5057108;28;20878;-65
2022/03/09 05:04:17;;;;;;;19.83;7.57;;;;;;;;;;5056912;28;20455;-69
2022/03/09 05:06:43;;;;;;;7.93;5.73;;;;;;;;;;5056882;28;20486;-65
2022/03/09 05:09:09;;;;;;;14.37;7.33;;;;;;;;;;5056926;28;20408;-68
2022/03/09 05:11:35;;;;;;;13.47;7.10;;;;;;;;;;5056975;28;20900;-72
2022/03/09 05:14:01;;;;;;;9.00;6.37;;;;;;;;;;5056914;28;20400;-62
2022/03/09 05:16:27;;;;;;;11.37;6.63;;;;;;;;;;5056526;28;20422;-64
2022/03/09 05:18:53;;;;;;;10.20;7.13;;;;;;;;;;5056807;28;20873;-65
2022/03/09 05:21:19;;;;;;;13.67;7.50;;;;;;;;;;5056738;28;20408;-62
2022/03/09 05:23:45;;;;;;;10.77;6.83;;;;;;;;;;5056643;28;20409;-64
2022/03/09 05:26:11;;;;;;;11.00;7.10;;;;;;;;;;5056590;28;20493;-63
2022/03/09 05:28:37;;;;;;;12.27;6.80;;;;;;;;;;5056541;28;20589;-67
2022/03/09 05:31:03;;;;;;;13.70;7.07;;;;;;;;;;5056598;28;20788;-72
2022/03/09 05:33:29;;;;;;;13.57;6.80;;;;;;;;;;5056516;28;21008;-70
2022/03/09 05:35:55;;;;;;;12.40;6.77;;;;;;;;;;5056560;28;20440;-71
2022/03/09 05:38:21;;;;;;;10.60;7.33;;;;;;;;;;5056391;28;20441;-71
2022/03/09 05:40:47;;;;;;;11.13;6.83;;;;;;;;;;5056476;28;20408;-71
2022/03/09 05:43:13;;;;;;;15.07;8.27;;;;;;;;;;5056302;28;20441;-72
2022/03/09 05:45:39;;;;;;;12.00;6.27;;;;;;;;;;5056256;28;20929;-68
2022/03/09 05:48:05;;;;;;;12.17;6.73;;;;;;;;;;5055021;28;20412;-68
2022/03/09 05:50:31;;;;;;;10.90;6.43;;;;;;;;;;5056127;28;20482;-71
2022/03/09 05:52:57;;;;;;;12.60;6.90;;;;;;;;;;5055992;28;20527;-71
2022/03/09 05:55:23;;;;;;;12.00;7.07;;;;;;;;;;5056040;28;20966;-68
2022/03/09 05:57:49;;;;;;;11.13;7.23;;;;;;;;;;5055807;28;20929;-70
2022/03/09 06:00:16;;;;;;;10.73;7.47;;;;;;;;;;5055914;28;20895;-72
2022/03/09 06:02:42;;;;;;;9.73;6.73;;;;;;;;;;5055932;28;20427;-63
2022/03/09 06:05:08;;;;;;;13.83;7.00;;;;;;;;;;5055771;28;20459;-63
2022/03/09 06:07:34;;;;;;;11.97;6.30;;;;;;;;;;5055534;28;20478;-61
2022/03/09 06:10:01;;;;;;;11.53;6.90;;;;;;;;;;5055706;28;20412;-64
2022/03/09 06:12:27;;;;;;;9.20;6.90;;;;;;;;;;5055767;28;20522;-63
2022/03/09 06:14:55;;;;;;;9.30;6.50;;;;;;;;;;5055836;28;20416;-63
2022/03/09 06:17:21;;;;;;;10.00;6.47;;;;;;;;;;5055470;28;20415;-63
2022/03/09 06:19:47;;;;;;;14.20;6.50;;;;;;;;;;5055802;28;20404;-63
2022/03/09 06:22:13;;;;;;;11.33;6.80;;;;;;;;;;5055495;28;20493;-65
2022/03/09 06:24:39;;;;;;;17.23;7.70;;;;;;;;;;5055558;28;20493;-62
2022/03/09 06:27:05;;;;;;;14.20;7.87;;;;;;;;;;5055368;28;20501;-68
2022/03/09 06:29:31;;;;;;;10.33;7.17;;;;;;;;;;5055347;28;20897;-72
2022/03/09 06:31:57;;;;;;;11.83;7.77;;;;;;;;;;5055557;28;20500;-72
2022/03/09 06:34:23;;;;;;;13.23;8.00;;;;;;;;;;5054117;28;20828;-69
2022/03/09 06:36:51;;;;;;;11.10;7.20;;;;;;;;;;5055339;28;20956;-71
2022/03/09 06:39:17;;;;;;;14.90;7.83;;;;;;;;;;5055271;28;20900;-72
2022/03/09 06:41:44;;;;;;;10.30;6.80;;;;;;;;;;5055245;28;20422;-75
2022/03/09 06:44:10;;;;;;;15.80;7.77;;;;;;;;;;5055275;28;20486;-72
2022/03/09 06:46:37;;;;;;;18.77;8.53;;;;;;;;;;5055171;28;20465;-73
2022/03/09 06:49:03;;;;;;;12.40;7.30;;;;;;;;;;5055143;28;20568;-72
2022/03/09 06:51:29;;;;;;;13.57;7.27;;;;;;;;;;5054945;28;20789;-73
2022/03/09 06:53:55;;;;;;;16.80;8.50;;;;;;;;;;5054986;28;20503;-67
2022/03/09 06:56:21;;;;;;;16.03;8.93;;;;;;;;;;5054917;28;20458;-69
2022/03/09 06:58:47;;;;;;;12.50;7.70;;;;;;;;;;5054784;28;20418;-69
2022/03/09 07:01:13;;;;;;;19.23;8.90;;;;;;;;;;5054897;28;20490;-63
2022/03/09 07:03:39;;;;;;;13.00;7.50;;;;;;;;;;5054773;28;20861;-63
2022/03/09 07:06:05;;;;;;;19.13;8.73;;;;;;;;;;5054734;28;21014;-62
2022/03/09 07:08:31;;;;;;;14.00;8.57;;;;;;;;;;5054722;28;20415;-66
2022/03/09 07:10:58;;;;;;;11.90;8.27;;;;;;;;;;5054662;28;20398;-67
2022/03/09 07:13:25;;;;;;;10.87;7.07;;;;;;;;;;5054856;28;20868;-62
2022/03/09 07:15:51;;;;;;;14.77;9.23;;;;;;;;;;5054739;28;20403;-62
2022/03/09 07:18:17;;;;;;;12.70;8.63;;;;;;;;;;5054695;28;20402;-67
2022/03/09 07:20:43;;;;;;;11.87;7.50;;;;;;;;;;5054177;28;20727;-62
2022/03/09 07:23:09;;;;;;;21.90;8.60;;;;;;;;;;5054678;28;20485;-63
2022/03/09 07:25:36;;;;;;;16.20;8.70;;;;;;;;;;5054349;28;20393;-69
2022/03/09 07:28:02;;;;;;;11.83;8.17;;;;;;;;;;5054344;28;20427;-73
2022/03/09 07:30:28;;;;;;;15.50;9.10;;;;;;;;;;5054280;28;20398;-72
2022/03/09 07:32:54;;;;;;;17.77;8.97;;;;;;;;;;5054356;28;20525;-74
2022/03/09 07:35:21;;;;;;;15.33;8.40;;;;;;;;;;5054308;28;20498;-73
2022/03/09 07:37:50;;;;;;;16.20;9.53;;;;;;;;;;5054081;28;20414;-71
2022/03/09 07:40:16;;;;;;;18.17;9.00;;;;;;;;;;5054158;28;20410;-68
2022/03/09 07:42:42;;;;;;;14.90;8.80;;;;;;;;;;5054185;28;20411;-70
2022/03/09 07:45:08;;;;;;;14.63;8.73;;;;;;;;;;5054127;28;20564;-68
2022/03/09 07:47:34;;;;;;;18.93;9.00;;;;;;;;;;5054040;28;20475;-70
2022/03/09 07:50:01;;;;;;;18.73;8.87;;;;;;;;;;5054026;28;20407;-73
2022/03/09 07:52:27;;;;;;;16.67;10.23;;;;;;;;;;5053953;28;20437;-73
2022/03/09 07:54:53;;;;;;;12.47;8.47;;;;;;;;;;5053983;28;20756;-76
2022/03/09 07:57:19;;;;;;;20.00;10.23;;;;;;;;;;5053667;28;20425;-73
2022/03/09 07:59:45;;;;;;;15.77;8.87;;;;;;;;;;5053826;28;20415;-66
2022/03/09 08:02:11;;;;;;;17.50;10.87;;;;;;;;;;5053813;28;20402;-65
2022/03/09 08:04:37;;;;;;;20.00;11.57;;;;;;;;;;5053597;28;21028;-67
2022/03/09 08:07:04;;;;;;;17.80;10.60;;;;;;;;;;5053467;28;20885;-62
2022/03/09 08:09:30;;;;;;;23.50;10.10;;;;;;;;;;5053702;28;20473;-62
2022/03/09 08:11:56;;;;;;;20.07;10.30;;;;;;;;;;5053772;28;20468;-62
2022/03/09 08:14:22;;;;;;;16.63;9.80;;;;;;;;;;5053577;28;20421;-62
2022/03/09 08:16:48;;;;;;;17.40;9.53;;;;;;;;;;5053326;28;20502;-71
2022/03/09 08:19:15;;;;;;;17.77;10.03;;;;;;;;;;5053492;28;20433;-62
2022/03/09 08:21:41;;;;;;;18.43;8.97;;;;;;;;;;5053744;28;20473;-63
2022/03/09 08:24:07;;;;;;;16.20;10.23;;;;;;;;;;5053423;28;20399;-74
2022/03/09 08:26:33;;;;;;;14.57;9.37;;;;;;;;;;5053197;28;20511;-76
2022/03/09 08:28:59;;;;;;;14.20;8.33;;;;;;;;;;5053391;28;20918;-76
2022/03/09 08:31:26;;;;;;;13.73;8.87;;;;;;;;;;5053226;28;20398;-76
2022/03/09 08:33:52;;;;;;;13.67;8.93;;;;;;;;;;5052211;28;20474;-75
2022/03/09 08:36:18;;;;;;;12.47;8.47;;;;;;;;;;5053273;28;20405;-76
2022/03/09 08:38:44;;;;;;;14.77;8.80;;;;;;;;;;5053263;28;20415;-76
2022/03/09 08:41:10;;;;;;;14.93;8.37;;;;;;;;;;5053344;28;20494;-76
2022/03/09 08:43:36;;;;;;;18.33;9.73;;;;;;;;;;5053170;28;20505;-77
2022/03/09 08:46:02;;;;;;;19.63;9.87;;;;;;;;;;5053038;28;20481;-74
2022/03/09 08:48:28;;;;;;;17.23;9.50;;;;;;;;;;5051889;28;20408;-70
2022/03/09 08:50:54;;;;;;;14.87;8.83;;;;;;;;;;5052975;28;20421;-75
2022/03/09 08:53:21;;;;;;;16.73;9.00;;;;;;;;;;5053384;28;20407;-74
2022/03/09 08:55:47;;;;;;;14.20;8.47;;;;;;;;;;5053025;28;20424;-77
2022/03/09 08:58:13;;;;;;;14.30;8.77;;;;;;;;;;5053241;28;20407;-75
2022/03/09 09:00:39;;;;;;;13.40;8.53;;;;;;;;;;5053065;28;20771;-76
2022/03/09 09:03:05;;;;;;;17.50;9.40;;;;;;;;;;5053041;28;20397;-72
2022/03/09 09:05:31;;;;;;;15.17;8.63;;;;;;;;;;5052787;28;20469;-75
2022/03/09 09:07:57;;;;;;;14.43;9.93;;;;;;;;;;5053039;28;20435;-71
2022/03/09 09:10:23;;;;;;;16.23;9.13;;;;;;;;;;5051708;28;20418;-65
2022/03/09 09:12:50;;;;;;;16.30;9.80;;;;;;;;;;5052845;28;20538;-62
2022/03/09 09:15:16;;;;;;;13.93;9.20;;;;;;;;;;5053007;28;20412;-62
2022/03/09 09:17:42;;;;;;;22.83;9.07;;;;;;;;;;5052893;28;20494;-76
2022/03/09 09:20:09;;;;;;;15.70;9.80;;;;;;;;;;5052810;28;20414;-77
2022/03/09 09:22:35;;;;;;;20.43;10.33;;;;;;;;;;5053060;28;20426;-76
2022/03/09 09:25:01;;;;;;;16.83;9.20;;;;;;;;;;5052945;28;20892;-75
2022/03/09 09:27:28;;;;;;;16.27;9.37;;;;;;;;;;5052853;28;20463;-72
2022/03/09 09:29:54;;;;;;;15.13;10.33;;;;;;;;;;5052690;28;20419;-75
2022/03/09 09:32:20;;;;;;;19.37;9.50;;;;;;;;;;5052915;28;20493;-74
2022/03/09 09:34:46;;;;;;;15.53;10.60;;;;;;;;;;5052972;28;20494;-77
2022/03/09 09:37:12;;;;;;;15.97;9.07;;;;;;;;;;5052734;28;20425;-75
2022/03/09 09:39:38;;;;;;;22.20;10.47;;;;;;;;;;5052665;28;20889;-75
2022/03/09 09:42:05;;;;;;;14.53;9.30;;;;;;;;;;5052693;28;20404;-76
2022/03/09 09:44:31;;;;;;;14.60;8.67;;;;;;;;;;5055407;28;20411;-73
2022/03/09 09:46:57;;;;;;;18.43;9.70;;;;;;;;;;5056296;28;20870;-77
2022/03/09 09:49:24;;;;;;;17.40;9.80;;;;;;;;;;5056544;28;20393;-77
2022/03/09 09:51:50;;;;;;;18.17;9.20;;;;;;;;;;5056259;28;20425;-62
2022/03/09 09:54:16;;;;;;;15.07;9.00;;;;;;;;;;5055087;28;20847;-75
2022/03/09 09:56:43;;;;;;;15.70;9.37;;;;;;;;;;5056219;28;20421;-75
2022/03/09 09:59:10;;;;;;;18.73;9.80;;;;;;;;;;5056274;28;20733;-75
2022/03/09 10:01:36;;;;;;;15.57;9.63;;;;;;;;;;5056244;28;20405;-76
2022/03/09 10:04:03;;;;;;;15.70;10.27;;;;;;;;;;5056061;28;20971;-75
2022/03/09 10:06:30;;;;;;;14.80;9.47;;;;;;;;;;5056538;28;20469;-76
2022/03/09 10:09:06;;;;;;;14.33;9.40;;;;;;;;;;5057477;28;20417;-76
2022/03/09 10:11:52;;;;;;;15.23;9.67;;;;;;;;;;5057544;28;20404;-76
2022/03/09 10:14:37;;;;;;;15.40;10.17;;;;;;;;;;5055910;28;20444;-64
2022/03/09 10:17:04;;;;;;;19.00;9.87;;;;;;;;;;5055597;28;20447;-68
2022/03/09 10:19:34;;;;;;;15.43;9.80;;;;;;;;;;5055864;28;20402;-65
2022/03/09 10:22:21;;;;;;;18.20;10.90;;;;;;;;;;5055689;28;20937;-70
2022/03/09 10:24:47;;;;;;;19.97;11.13;;;;;;;;;;5055828;28;20410;-73
2022/03/09 10:27:13;;;;;;;17.17;10.33;;;;;;;;;;5055644;28;20457;-62
2022/03/09 10:29:39;;;;;;;15.80;10.47;;;;;;;;;;5055634;28;20795;-68
2022/03/09 10:32:05;;;;;;;20.77;10.77;;;;;;;;;;5055507;28;20463;-67
2022/03/09 10:34:35;;;;;;;16.73;10.00;;;;;;;;;;5055703;28;20413;-65
2022/03/09 10:37:06;;;;;;;19.97;11.03;;;;;;;;;;5055449;28;20991;-66
2022/03/09 10:39:37;;;;;;;18.63;11.13;;;;;;;;;;5055449;28;20716;-71
2022/03/09 10:42:03;;;;;;;19.20;11.40;;;;;;;;;;5055459;28;20483;-68
2022/03/09 10:44:42;;;;;;;18.67;11.83;;;;;;;;;;5055479;28;20390;-71
2022/03/09 10:47:08;;;;;;;23.10;12.07;;;;;;;;;;5055147;28;20481;-64
2022/03/09 10:49:35;;;;;;;14.10;10.30;;;;;;;;;;5055294;28;20463;-62
2022/03/09 10:52:01;;;;;;;17.30;10.37;;;;;;;;;;5055147;28;20520;-62
2022/03/09 10:54:28;;;;;;;18.73;10.97;;;;;;;;;;5054217;28;20462;-64
2022/03/09 10:57:03;;;;;;;17.53;10.63;;;;;;;;;;5054792;28;20402;-73
2022/03/09 10:59:29;;;;;;;18.70;10.70;;;;;;;;;;5054924;28;20417;-63
2022/03/09 11:02:07;;;;;;;20.33;11.70;;;;;;;;;;5053715;28;20417;-71
2022/03/09 11:04:33;;;;;;;22.93;11.27;;;;;;;;;;5054804;28;20962;-64
2022/03/09 11:07:00;;;;;;;20.97;11.90;;;;;;;;;;5054661;28;20505;-63
2022/03/09 11:09:26;;;;;;;18.07;11.40;;;;;;;;;;5054884;28;20456;-64
2022/03/09 11:11:53;;;;;;;19.20;11.13;;;;;;;;;;5054685;28;20406;-64
2022/03/09 11:14:20;;;;;;;18.17;11.10;;;;;;;;;;5054790;28;20402;-76
2022/03/09 11:16:47;;;;;;;17.80;10.60;;;;;;;;;;5054701;28;20413;-78
2022/03/09 11:19:13;;;;;;;18.67;10.67;;;;;;;;;;5054647;28;20435;-75
2022/03/09 11:21:40;;;;;;;18.80;12.13;;;;;;;;;;5054556;28;20584;-75
2022/03/09 11:24:07;;;;;;;24.80;11.50;;;;;;;;;;5054374;28;20512;-73
2022/03/09 11:26:34;;;;;;;28.57;12.20;;;;;;;;;;5054311;28;20842;-78
2022/03/09 11:29:12;;;;;;;22.33;12.97;;;;;;;;;;5054604;28;20409;-77
2022/03/09 11:31:48;;;;;;;18.97;12.97;;;;;;;;;;5054520;28;20409;-76
2022/03/09 11:34:32;;;;;;;23.53;13.47;;;;;;;;;;5054447;28;20438;-76
2022/03/09 11:37:00;;;;;;;23.17;11.87;;;;;;;;;;5054198;28;20909;-74
2022/03/09 11:39:26;;;;;;;24.60;12.13;;;;;;;;;;5054417;28;20406;-79
2022/03/09 11:42:11;;;;;;;22.63;12.67;;;;;;;;;;5054391;28;20398;-75
2022/03/09 11:44:39;;;;;;;18.07;12.33;;;;;;;;;;5054035;28;20492;-64
2022/03/09 11:47:07;;;;;;;21.13;12.73;;;;;;;;;;5053994;28;20457;-64
2022/03/09 11:49:42;;;;;;;22.67;12.27;;;;;;;;;;5054082;28;20412;-64
2022/03/09 11:52:12;;;;;;;24.57;13.90;;;;;;;;;;5053948;28;20437;-63
2022/03/09 11:54:41;;;;;;;17.73;11.67;;;;;;;;;;5053998;28;20409;-65
2022/03/09 11:57:08;;;;;;;21.97;12.10;;;;;;;;;;5053793;28;20767;-64
2022/03/09 11:59:34;;;;;;;20.97;12.00;;;;;;;;;;5054111;28;20409;-69
2022/03/09 12:02:04;;;;;;;20.47;11.60;;;;;;;;;;5052691;28;20414;-67
2022/03/09 12:04:45;;;;;;;18.30;11.20;;;;;;;;;;5053752;28;20465;-64
2022/03/09 12:07:11;;;;;;;19.70;12.43;;;;;;;;;;5053305;28;20465;-69
2022/03/09 12:10:10;;;;;;;19.03;11.83;;;;;;;;;;5053862;28;20413;-64
2022/03/09 12:12:36;;;;;;;19.60;12.37;;;;;;;;;;5052629;28;20406;-76
2022/03/09 12:15:04;;;;;;;18.83;10.70;;;;;;;;;;5053692;28;20880;-78
2022/03/09 12:17:31;;;;;;;17.07;11.20;;;;;;;;;;5053546;28;20422;-73
2022/03/09 12:20:17;;;;;;;22.23;11.37;;;;;;;;;;5052765;28;20398;-75
2022/03/09 12:22:59;;;;;;;15.87;11.07;;;;;;;;;;5054110;28;20560;-79
2022/03/09 12:25:39;;;;;;;16.27;10.57;;;;;;;;;;5053390;28;20542;-75
2022/03/09 12:28:24;;;;;;;17.90;11.77;;;;;;;;;;5053433;28;20508;-74
2022/03/09 12:31:08;;;;;;;16.70;10.13;;;;;;;;;;5053600;28;20500;-72
2022/03/09 12:33:36;;;;;;;18.80;11.47;;;;;;;;;;5053293;28;20911;-75
2022/03/09 12:36:05;;;;;;;18.23;11.43;;;;;;;;;;5053077;28;20500;-74
2022/03/09 12:38:40;;;;;;;20.70;11.37;;;;;;;;;;5053195;28;20509;-74
2022/03/09 12:41:07;;;;;;;15.10;10.63;;;;;;;;;;5053205;28;20500;-76
2022/03/09 12:43:46;;;;;;;20.40;11.60;;;;;;;;;;5053167;28;20730;-77
2022/03/09 12:46:12;;;;;;;20.77;11.47;;;;;;;;;;5053051;28;20453;-75
2022/03/09 12:48:41;;;;;;;15.23;9.40;;;;;;;;;;5053101;28;20889;-71
2022/03/09 12:51:08;;;;;;;19.93;11.03;;;;;;;;;;5053106;28;20436;-77
2022/03/09 12:53:34;;;;;;;21.80;10.93;;;;;;;;;;5051975;28;20417;-73
2022/03/09 12:56:12;;;;;;;18.93;11.03;;;;;;;;;;5051830;28;20780;-79
2022/03/09 12:58:39;;;;;;;18.33;11.43;;;;;;;;;;5053068;28;20437;-66
2022/03/09 13:01:05;;;;;;;18.50;11.17;;;;;;;;;;5053078;28;20397;-63
2022/03/09 13:03:31;;;;;;;20.97;10.90;;;;;;;;;;5052787;28;20458;-79
2022/03/09 13:05:57;;;;;;;17.43;10.53;;;;;;;;;;5052936;28;20410;-77
2022/03/09 13:08:32;;;;;;;20.97;12.00;;;;;;;;;;5053141;28;20731;-70
2022/03/09 13:10:59;;;;;;;20.43;11.40;;;;;;;;;;5053383;28;20456;-63
2022/03/09 13:13:32;;;;;;;15.90;10.63;;;;;;;;;;5053892;28;20526;-76
2022/03/09 13:16:02;;;;;;;19.90;11.60;;;;;;;;;;5051775;28;20444;-73
2022/03/09 13:18:32;;;;;;;17.93;10.70;;;;;;;;;;5054287;28;20405;-68
2022/03/09 13:20:59;;;;;;;19.20;11.50;;;;;;;;;;5056790;28;20416;-63
2022/03/09 13:23:25;;;;;;;17.67;11.00;;;;;;;;;;5056917;28;20437;-64
2022/03/09 13:25:51;;;;;;;17.57;10.70;;;;;;;;;;5056694;28;20514;-64
2022/03/09 13:28:26;;;;;;;17.33;11.10;;;;;;;;;;5056608;28;20471;-66
2022/03/09 13:30:52;;;;;;;23.70;12.23;;;;;;;;;;5056857;28;20404;-63
2022/03/09 13:33:21;;;;;;;17.67;12.40;;;;;;;;;;5056626;28;20508;-76
2022/03/09 13:35:49;;;;;;;16.03;11.03;;;;;;;;;;5056564;28;20428;-74
2022/03/09 13:38:29;;;;;;;17.67;10.87;;;;;;;;;;5056436;28;20413;-76
2022/03/09 13:41:06;;;;;;;16.90;10.77;;;;;;;;;;5056581;28;20409;-76
2022/03/09 13:43:40;;;;;;;15.50;11.20;;;;;;;;;;5056478;28;20413;-70
2022/03/09 13:46:13;;;;;;;14.40;10.20;;;;;;;;;;5056294;28;20456;-73
2022/03/09 13:48:39;;;;;;;16.70;10.60;;;;;;;;;;5056410;28;20413;-74
2022/03/09 13:51:05;;;;;;;20.73;12.13;;;;;;;;;;5056082;28;20948;-73
2022/03/09 13:53:32;;;;;;;24.47;13.97;;;;;;;;;;5056163;28;20413;-71
2022/03/09 13:55:58;;;;;;;15.77;11.03;;;;;;;;;;5056160;28;20389;-69
2022/03/09 13:58:28;;;;;;;18.33;10.67;;;;;;;;;;5056159;28;20416;-73
2022/03/09 14:01:07;;;;;;;18.80;11.33;;;;;;;;;;5056176;28;20448;-64
2022/03/09 14:03:52;;;;;;;17.93;11.87;;;;;;;;;;5055882;28;20549;-62
2022/03/09 14:06:23;;;;;;;15.87;10.50;;;;;;;;;;5055957;28;20542;-64
2022/03/09 14:08:50;;;;;;;18.53;10.87;;;;;;;;;;5056897;28;20425;-65
2022/03/09 14:11:20;;;;;;;18.70;12.33;;;;;;;;;;5056583;28;20433;-72
2022/03/09 14:14:06;;;;;;;16.43;10.67;;;;;;;;;;5055967;28;20414;-70
2022/03/09 14:16:36;;;;;;;19.30;12.17;;;;;;;;;;5055710;28;20437;-65
2022/03/09 14:19:03;;;;;;;21.60;12.00;;;;;;;;;;5055603;28;20386;-70
2022/03/09 14:21:29;;;;;;;20.53;12.33;;;;;;;;;;5055767;28;20423;-62
2022/03/09 14:23:59;;;;;;;20.70;12.57;;;;;;;;;;5055777;28;20412;-69
2022/03/09 14:26:25;;;;;;;19.40;12.50;;;;;;;;;;5055603;28;20987;-65
2022/03/09 14:28:52;;;;;;;20.40;13.00;;;;;;;;;;5055269;28;20422;-64
2022/03/09 14:31:18;;;;;;;24.60;13.80;;;;;;;;;;5055507;28;20413;-64